Time;durP1;ratioP1;P1;durP2;ratioP2;P2;SDS_P1;SDS_P2;PMS_P1;PMS_P2;Temp;Humidity;BMP_temperature;BMP_pressure;BME280_temperature;BME280_humidity;BME280_pressure;Samples;Min_cycle;Max_cycle;Signal;HPM_P1;HPM_P2
2022/08/28 00:01:05;;;;;;;8.45;5.93;;;19.40;99.90;;;;;;5051147;28;20029;-84
2022/08/28 00:03:31;;;;;;;10.32;6.45;;;19.50;99.90;;;;;;5048309;28;20044;-82
2022/08/28 00:05:58;;;;;;;11.55;6.45;;;19.50;99.90;;;;;;5008439;28;20029;-83
2022/08/28 00:08:24;;;;;;;8.73;5.97;;;19.40;99.90;;;;;;5041743;28;20033;-81
2022/08/28 00:10:50;;;;;;;9.45;5.57;;;19.40;99.90;;;;;;5007735;28;20029;-82
2022/08/28 00:13:19;;;;;;;11.18;5.75;;;19.50;99.90;;;;;;5042174;28;20034;-80
2022/08/28 00:15:47;;;;;;;8.32;5.20;;;19.50;99.90;;;;;;5044008;28;20044;-81
2022/08/28 00:18:13;;;;;;;9.68;5.68;;;19.50;99.90;;;;;;5049309;28;20029;-82
2022/08/28 00:20:40;;;;;;;9.27;5.00;;;19.50;99.90;;;;;;5050685;28;20021;-81
2022/08/28 00:23:06;;;;;;;10.95;5.22;;;19.60;99.90;;;;;;5048988;28;20081;-81
2022/08/28 00:25:33;;;;;;;9.35;5.38;;;19.60;99.90;;;;;;5044175;28;20028;-81
2022/08/28 00:28:01;;;;;;;8.38;5.18;;;19.60;99.90;;;;;;5024918;28;20090;-80
2022/08/28 00:30:34;;;;;;;9.77;5.53;;;19.60;99.90;;;;;;5024512;28;20588;-79
2022/08/28 00:33:12;;;;;;;8.65;5.15;;;19.60;99.90;;;;;;5048250;28;20466;-81
2022/08/28 00:35:40;;;;;;;8.00;6.07;;;19.60;99.90;;;;;;5045492;28;20022;-81
2022/08/28 00:38:07;;;;;;;9.48;5.15;;;19.60;99.90;;;;;;5022056;28;20025;-82
2022/08/28 00:40:33;;;;;;;11.65;6.00;;;19.60;99.90;;;;;;5040221;28;20044;-81
2022/08/28 00:43:02;;;;;;;11.30;5.75;;;19.60;99.90;;;;;;5022270;28;20032;-82
2022/08/28 00:45:30;;;;;;;13.95;5.60;;;19.60;99.90;;;;;;5039530;28;20060;-82
2022/08/28 00:47:57;;;;;;;8.52;5.07;;;19.60;99.90;;;;;;5039500;28;20100;-80
2022/08/28 00:50:26;;;;;;;10.65;5.47;;;19.60;99.90;;;;;;5022340;28;20037;-81
2022/08/28 00:52:57;;;;;;;9.98;5.05;;;19.60;99.90;;;;;;5022634;28;20037;-81
2022/08/28 00:55:26;;;;;;;9.57;5.28;;;19.60;99.90;;;;;;5022579;28;20057;-82
2022/08/28 00:57:57;;;;;;;11.13;6.07;;;19.60;99.90;;;;;;5042777;28;20043;-81
2022/08/28 01:00:25;;;;;;;8.88;5.40;;;19.60;99.90;;;;;;5031065;28;20029;-80
2022/08/28 01:02:51;;;;;;;12.18;5.80;;;19.60;99.90;;;;;;5049236;28;20026;-82
2022/08/28 01:05:19;;;;;;;12.07;5.22;;;19.50;99.90;;;;;;5018154;28;20075;-80
2022/08/28 01:07:45;;;;;;;7.93;4.90;;;19.50;99.90;;;;;;5050838;28;20032;-83
2022/08/28 01:10:17;;;;;;;8.15;4.68;;;19.50;99.90;;;;;;5054879;22;20041;-87
2022/08/28 01:12:44;;;;;;;10.40;4.97;;;19.50;99.90;;;;;;5033112;28;20033;-86
2022/08/28 01:15:13;;;;;;;12.55;4.63;;;19.50;99.90;;;;;;5051635;28;20029;-85
2022/08/28 01:17:51;;;;;;;9.93;5.07;;;19.50;99.90;;;;;;5031216;28;20025;-87
2022/08/28 01:20:23;;;;;;;11.30;5.07;;;19.40;99.90;;;;;;5031915;28;20040;-86
2022/08/28 01:23:01;;;;;;;8.52;5.10;;;19.50;99.90;;;;;;5031786;28;20072;-88
2022/08/28 01:25:31;;;;;;;7.15;4.60;;;19.50;99.90;;;;;;5050328;28;20056;-86
2022/08/28 01:27:57;;;;;;;12.90;5.03;;;19.50;99.90;;;;;;5035407;28;20037;-84
2022/08/28 01:30:23;;;;;;;6.10;4.72;;;19.50;99.90;;;;;;5019207;28;20016;-85
2022/08/28 01:32:52;;;;;;;8.32;4.97;;;19.50;99.90;;;;;;5052859;28;20037;-85
2022/08/28 01:35:25;;;;;;;8.45;4.43;;;19.50;99.90;;;;;;5036054;28;20056;-87
2022/08/28 01:37:53;;;;;;;8.43;5.10;;;19.50;99.90;;;;;;5055831;28;20025;-84
2022/08/28 01:40:34;;;;;;;8.45;5.32;;;19.50;99.90;;;;;;5036668;28;20025;-87
2022/08/28 01:43:15;;;;;;;9.93;6.13;;;19.60;99.90;;;;;;5039554;28;20037;-85
2022/08/28 01:45:44;;;;;;;11.18;5.95;;;19.60;99.90;;;;;;5037687;28;20044;-85
2022/08/28 01:48:12;;;;;;;10.35;6.03;;;19.70;99.90;;;;;;5040764;28;20021;-84
2022/08/28 01:50:39;;;;;;;11.40;5.53;;;19.70;99.90;;;;;;5041669;28;20009;-84
2022/08/28 01:53:06;;;;;;;10.48;6.25;;;19.60;99.90;;;;;;5041636;28;20021;-86
2022/08/28 01:55:34;;;;;;;8.38;6.18;;;19.70;99.90;;;;;;5058553;28;20014;-85
2022/08/28 01:58:01;;;;;;;11.13;6.45;;;19.80;99.90;;;;;;5058571;28;20024;-86
2022/08/28 02:00:28;;;;;;;11.52;6.43;;;19.80;99.90;;;;;;5057601;28;20097;-87
2022/08/28 02:02:55;;;;;;;14.55;6.13;;;19.80;99.90;;;;;;5038012;28;20018;-87
2022/08/28 02:05:23;;;;;;;10.75;6.38;;;19.80;99.90;;;;;;5053793;28;20029;-87
2022/08/28 02:07:51;;;;;;;11.13;5.75;;;19.80;99.90;;;;;;5054806;28;20029;-87
2022/08/28 02:10:23;;;;;;;9.38;5.38;;;19.80;99.90;;;;;;5041010;28;20036;-86
2022/08/28 02:12:49;;;;;;;10.98;5.78;;;19.80;99.90;;;;;;5025228;28;20045;-86
2022/08/28 02:15:15;;;;;;;8.55;6.25;;;19.70;99.90;;;;;;5041818;28;20039;-84
2022/08/28 02:17:41;;;;;;;8.95;5.85;;;19.70;99.90;;;;;;5041714;28;20014;-86
2022/08/28 02:20:08;;;;;;;8.48;5.68;;;19.70;99.90;;;;;;5053019;28;20033;-87
2022/08/28 02:22:34;;;;;;;15.63;6.05;;;19.70;99.90;;;;;;5037032;28;20033;-87
2022/08/28 02:25:00;;;;;;;11.10;5.65;;;19.80;99.90;;;;;;5037752;28;20056;-87
2022/08/28 02:27:26;;;;;;;12.20;5.80;;;19.70;99.90;;;;;;5020626;28;20094;-88
2022/08/28 02:29:52;;;;;;;8.27;5.28;;;19.70;99.90;;;;;;5034737;28;20022;-88
2022/08/28 02:32:18;;;;;;;6.43;5.20;;;19.70;99.90;;;;;;5028060;28;20040;-88
2022/08/28 02:34:44;;;;;;;7.95;5.35;;;19.80;99.90;;;;;;5045749;28;20018;-85
2022/08/28 02:37:12;;;;;;;10.05;4.82;;;19.80;99.90;;;;;;5045818;28;20033;-87
2022/08/28 02:39:38;;;;;;;11.27;5.55;;;19.80;99.90;;;;;;5028468;28;20029;-87
2022/08/28 02:42:05;;;;;;;8.48;5.13;;;19.80;99.90;;;;;;5013061;28;20029;-89
2022/08/28 02:44:31;;;;;;;7.03;5.07;;;19.80;99.90;;;;;;5046104;28;20109;-87
2022/08/28 02:46:57;;;;;;;9.95;4.70;;;19.70;99.90;;;;;;5046532;28;20551;-88
2022/08/28 02:49:22;;;;;;;13.20;4.90;;;19.70;99.90;;;;;;5028415;28;20120;-87
2022/08/28 02:51:50;;;;;;;8.15;5.10;;;19.70;99.90;;;;;;5046326;28;20030;-88
2022/08/28 02:54:16;;;;;;;8.38;4.72;;;19.70;99.90;;;;;;5046200;28;20056;-88
2022/08/28 02:56:42;;;;;;;12.63;5.53;;;19.70;99.90;;;;;;5029580;28;20037;-87
2022/08/28 02:59:07;;;;;;;10.15;4.68;;;19.70;99.90;;;;;;5049907;28;20071;-87
2022/08/28 03:01:34;;;;;;;9.20;5.00;;;19.70;99.90;;;;;;5051491;28;20056;-88
2022/08/28 03:04:01;;;;;;;6.55;4.90;;;19.70;99.90;;;;;;5012958;28;20060;-85
2022/08/28 03:06:28;;;;;;;9.52;5.28;;;19.70;99.90;;;;;;5013496;28;20049;-86
2022/08/28 03:08:55;;;;;;;8.68;4.93;;;19.80;99.90;;;;;;5050198;28;20052;-87
2022/08/28 03:11:24;;;;;;;9.73;5.75;;;19.70;99.90;;;;;;5033225;28;20091;-87
2022/08/28 03:13:49;;;;;;;8.50;5.53;;;19.70;99.90;;;;;;5037732;28;20029;-85
2022/08/28 03:16:15;;;;;;;11.55;6.05;;;19.70;99.90;;;;;;5038938;28;20081;-84
2022/08/28 03:18:41;;;;;;;15.45;6.70;;;19.70;99.90;;;;;;5040755;28;20032;-84
2022/08/28 03:21:08;;;;;;;13.60;6.28;;;19.70;99.90;;;;;;5040401;28;20021;-86
2022/08/28 03:23:34;;;;;;;11.63;6.22;;;19.70;99.90;;;;;;5054116;28;20030;-87
2022/08/28 03:26:07;;;;;;;9.65;5.97;;;19.60;99.90;;;;;;5053857;28;20037;-89
2022/08/28 03:28:38;;;;;;;10.77;7.13;;;19.60;99.90;;;;;;5054819;28;20014;-87
2022/08/28 03:31:05;;;;;;;12.70;7.40;;;19.60;99.90;;;;;;5034007;28;20034;-87
2022/08/28 03:33:32;;;;;;;12.70;7.13;;;19.60;99.90;;;;;;5037639;28;20049;-86
2022/08/28 03:35:58;;;;;;;11.27;7.38;;;19.60;99.90;;;;;;5056820;28;20033;-85
2022/08/28 03:38:25;;;;;;;10.02;6.78;;;19.50;99.90;;;;;;5023556;28;20025;-87
2022/08/28 03:40:51;;;;;;;10.10;6.82;;;19.50;99.90;;;;;;5055167;28;20083;-86
2022/08/28 03:43:20;;;;;;;15.60;7.28;;;19.50;99.90;;;;;;5053077;28;20025;-84
2022/08/28 03:46:01;;;;;;;13.57;7.43;;;19.50;99.90;;;;;;5047353;28;20017;-86
2022/08/28 03:48:30;;;;;;;13.20;7.20;;;19.50;99.90;;;;;;5013100;28;20115;-87
2022/08/28 03:50:57;;;;;;;15.05;7.30;;;19.50;99.90;;;;;;5050572;28;20026;-87
2022/08/28 03:53:25;;;;;;;14.45;7.68;;;19.50;99.90;;;;;;5050309;28;20041;-88
2022/08/28 03:55:52;;;;;;;13.82;7.15;;;19.50;99.90;;;;;;5015973;28;20089;-87
2022/08/28 03:58:19;;;;;;;13.35;6.80;;;19.50;99.90;;;;;;5052688;28;20029;-88
2022/08/28 04:00:45;;;;;;;15.32;6.88;;;19.50;99.90;;;;;;5036827;28;20021;-89
2022/08/28 04:03:12;;;;;;;11.32;7.07;;;19.50;99.90;;;;;;5054075;28;20029;-87
2022/08/28 04:05:42;;;;;;;11.23;7.32;;;19.50;99.90;;;;;;5033945;28;20079;-88
2022/08/28 04:08:11;;;;;;;12.73;8.07;;;19.50;99.90;;;;;;5032158;28;20037;-88
2022/08/28 04:10:37;;;;;;;13.00;6.95;;;19.60;99.90;;;;;;5050058;28;20029;-88
2022/08/28 04:13:03;;;;;;;12.73;6.90;;;19.50;99.90;;;;;;5032809;28;20081;-88
2022/08/28 04:15:29;;;;;;;11.82;6.75;;;19.60;99.90;;;;;;5015556;28;20030;-87
2022/08/28 04:17:55;;;;;;;10.93;6.95;;;19.60;99.90;;;;;;5047205;28;20112;-87
2022/08/28 04:20:21;;;;;;;9.57;6.60;;;19.60;99.90;;;;;;5011934;28;20096;-89
2022/08/28 04:22:48;;;;;;;11.45;6.82;;;19.70;99.90;;;;;;5015003;28;20037;-87
2022/08/28 04:25:14;;;;;;;11.68;6.45;;;19.70;99.90;;;;;;5033266;28;20121;-88
2022/08/28 04:27:41;;;;;;;7.90;5.70;;;19.80;99.90;;;;;;5039890;28;20040;-87
2022/08/28 04:30:08;;;;;;;10.75;6.47;;;19.80;99.90;;;;;;5037738;28;20029;-89
2022/08/28 04:32:36;;;;;;;10.32;6.70;;;19.90;99.90;;;;;;5034304;28;20426;-89
2022/08/28 04:35:04;;;;;;;14.07;5.65;;;19.80;99.90;;;;;;5033694;28;20092;-89
2022/08/28 04:37:30;;;;;;;12.70;6.18;;;19.90;99.90;;;;;;5033665;28;20029;-88
2022/08/28 04:39:56;;;;;;;10.07;5.80;;;19.90;99.90;;;;;;5016925;28;20036;-87
2022/08/28 04:42:22;;;;;;;10.43;5.38;;;19.90;99.90;;;;;;5050119;28;20029;-87
2022/08/28 04:44:48;;;;;;;8.60;5.85;;;20.00;99.90;;;;;;5032154;28;20025;-86
2022/08/28 04:47:14;;;;;;;12.65;5.95;;;20.10;99.90;;;;;;5032169;28;20030;-89
2022/08/28 04:49:39;;;;;;;10.65;5.95;;;20.10;99.90;;;;;;5050886;28;20049;-88
2022/08/28 04:52:06;;;;;;;8.20;5.85;;;20.10;99.90;;;;;;5035780;28;20025;-86
2022/08/28 04:54:35;;;;;;;13.45;6.32;;;20.20;99.90;;;;;;5041792;28;20025;-85
2022/08/28 04:57:01;;;;;;;8.88;5.43;;;20.20;99.90;;;;;;5026147;28;20032;-85
2022/08/28 04:59:35;;;;;;;9.95;5.50;;;20.30;99.90;;;;;;5040910;28;20021;-83
2022/08/28 05:02:18;;;;;;;7.93;5.95;;;20.30;99.90;;;;;;5041557;28;20045;-86
2022/08/28 05:05:13;;;;;;;10.02;5.82;;;20.20;99.90;;;;;;5043288;28;20041;-86
2022/08/28 05:08:41;;;;;;;10.18;5.80;;;20.20;99.90;;;;;;5026199;28;20037;-86
2022/08/28 05:12:19;;;;;;;;;;;;;;;;;;;;;
2022/08/28 05:29:06;;;;;;;8.38;5.88;;;20.50;99.90;;;;;;4960020;28;20038;-86
2022/08/28 05:32:14;;;;;;;9.55;5.72;;;20.50;99.90;;;;;;4940048;28;20063;-87
2022/08/28 05:35:25;;;;;;;9.93;5.88;;;20.60;99.90;;;;;;4920178;29;20044;-86
2022/08/28 05:39:01;;;;;;;16.15;5.97;;;20.70;99.90;;;;;;4928019;28;20134;-86
2022/08/28 05:48:14;;;;;;;;;;;;;;;;;;;;;
2022/08/28 05:52:27;;;;;;;;;;;;;;;;;;;;;
2022/08/28 05:56:10;;;;;;;;;;;;;;;;;;;;;
2022/08/28 05:59:09;;;;;;;11.68;6.28;;;21.00;99.90;;;;;;4959661;28;20044;-85
2022/08/28 06:02:43;;;;;;;10.05;5.78;;;21.10;99.90;;;;;;4918794;28;20033;-87
2022/08/28 06:10:12;;;;;;;12.75;6.65;;;21.30;99.90;;;;;;4954952;29;20084;-86
2022/08/28 06:13:19;;;;;;;7.20;6.05;;;21.40;99.90;;;;;;4954399;29;20163;-88
2022/08/28 06:27:01;;;;;;;8.05;6.15;;;21.80;99.90;;;;;;4959046;28;20085;-88
2022/08/28 06:33:47;;;;;;;;;;;;;;;;;;;;;
2022/08/28 06:37:08;;;;;;;;;;;;;;;;;;;;;
2022/08/28 06:40:16;;;;;;;8.95;6.13;;;22.20;99.90;;;;;;4848259;29;20102;-86
2022/08/28 06:43:46;;;;;;;11.18;6.78;;;22.20;99.90;;;;;;4872215;28;20074;-88
2022/08/28 06:46:46;;;;;;;11.35;6.93;;;22.30;99.90;;;;;;5019642;28;20038;-87
2022/08/28 06:56:10;;;;;;;;;;;;;;;;;;;;;
2022/08/28 06:59:35;;;;;;;12.10;6.30;;;22.30;99.90;;;;;;5023826;28;20065;-86
2022/08/28 07:03:21;;;;;;;;;;;;;;;;;;;;;
2022/08/28 07:06:52;;;;;;;10.30;6.40;;;22.50;99.90;;;;;;5011739;28;20025;-87
2022/08/28 07:12:33;;;;;;;11.65;6.78;;;22.70;99.90;;;;;;4980608;28;20057;-83
2022/08/28 07:14:59;;;;;;;9.98;6.72;;;22.90;99.90;;;;;;4990317;28;20059;-82
2022/08/28 07:17:25;;;;;;;14.90;7.63;;;22.90;99.90;;;;;;4979471;28;20023;-81
2022/08/28 07:19:50;;;;;;;10.57;6.82;;;22.80;99.90;;;;;;4981098;28;20109;-82
2022/08/28 07:22:16;;;;;;;10.05;7.40;;;22.80;99.90;;;;;;4992596;28;20035;-83
2022/08/28 07:24:42;;;;;;;14.50;7.53;;;23.00;99.90;;;;;;4968054;28;20042;-84
2022/08/28 07:27:08;;;;;;;10.40;6.97;;;22.90;99.90;;;;;;4970460;28;20494;-82
2022/08/28 07:29:34;;;;;;;9.75;7.05;;;23.00;99.90;;;;;;4965804;28;20027;-83
2022/08/28 07:32:02;;;;;;;12.43;7.38;;;23.00;99.90;;;;;;4983308;28;20093;-84
2022/08/28 07:34:28;;;;;;;12.75;7.63;;;23.10;99.90;;;;;;4981169;28;20019;-82
2022/08/28 07:36:55;;;;;;;9.13;7.13;;;23.10;99.90;;;;;;4977023;28;20031;-82
2022/08/28 07:39:21;;;;;;;9.85;7.68;;;23.10;99.90;;;;;;4977791;28;20043;-81
2022/08/28 07:41:47;;;;;;;10.80;7.55;;;22.90;99.90;;;;;;4978268;28;20035;-82
2022/08/28 07:47:02;;;;;;;12.82;7.13;;;22.80;99.90;;;;;;4978761;28;20067;-82
2022/08/28 07:49:30;;;;;;;13.20;7.32;;;22.80;99.90;;;;;;4959992;28;20499;-82
2022/08/28 07:51:56;;;;;;;12.73;8.05;;;22.90;99.90;;;;;;4981708;28;20027;-82
2022/08/28 07:54:22;;;;;;;13.75;8.00;;;23.10;99.90;;;;;;4981640;28;20026;-84
2022/08/28 07:56:48;;;;;;;13.65;8.65;;;23.10;99.90;;;;;;4963868;28;20510;-83
2022/08/28 07:59:15;;;;;;;10.65;7.53;;;23.20;99.90;;;;;;4987020;28;20086;-83
2022/08/28 08:01:43;;;;;;;17.27;8.40;;;23.20;99.90;;;;;;4984897;28;20038;-81
2022/08/28 08:04:11;;;;;;;15.30;8.70;;;23.10;99.90;;;;;;5002020;28;20133;-79
2022/08/28 08:06:39;;;;;;;12.32;8.50;;;23.10;99.90;;;;;;4985304;28;20057;-82
2022/08/28 08:09:07;;;;;;;17.48;10.07;;;23.10;99.90;;;;;;5001654;28;20090;-83
2022/08/28 08:11:33;;;;;;;22.15;11.23;;;23.00;99.90;;;;;;5000931;28;20031;-80
2022/08/28 08:14:04;;;;;;;20.63;11.80;;;22.60;99.90;;;;;;5000997;28;20091;-79
2022/08/28 08:16:33;;;;;;;26.45;13.10;;;22.10;99.90;;;;;;5001608;28;20038;-79
2022/08/28 08:19:00;;;;;;;21.33;13.50;;;21.60;99.90;;;;;;4999142;28;20031;-81
2022/08/28 08:21:27;;;;;;;23.80;15.07;;;21.10;99.90;;;;;;4978554;28;20499;-82
2022/08/28 08:23:53;;;;;;;24.95;15.45;;;20.70;99.90;;;;;;4974364;28;20023;-82
2022/08/28 08:26:22;;;;;;;28.70;16.55;;;20.60;99.90;;;;;;4986713;28;20137;-82
2022/08/28 08:28:49;;;;;;;25.60;16.25;;;20.50;99.90;;;;;;4990265;28;20019;-82
2022/08/28 08:31:25;;;;;;;33.67;17.05;;;20.40;99.90;;;;;;4990999;28;20086;-82
2022/08/28 08:33:57;;;;;;;42.50;19.77;;;20.10;99.90;;;;;;4985485;28;20054;-82
2022/08/28 08:36:25;;;;;;;42.83;20.48;;;20.00;99.90;;;;;;4966146;28;20026;-83
2022/08/28 08:38:52;;;;;;;38.72;21.80;;;19.90;99.90;;;;;;4984763;28;20085;-82
2022/08/28 08:41:24;;;;;;;42.50;22.27;;;19.90;99.90;;;;;;4985354;28;20042;-83
2022/08/28 08:43:59;;;;;;;47.58;23.17;;;19.90;99.90;;;;;;4985578;28;20027;-82
2022/08/28 08:46:32;;;;;;;38.17;23.17;;;19.90;99.90;;;;;;4984251;28;20042;-82
2022/08/28 08:49:06;;;;;;;41.33;23.00;;;19.80;99.90;;;;;;4983761;28;20035;-82
2022/08/28 08:51:40;;;;;;;41.73;22.20;;;19.60;99.90;;;;;;4991848;28;20026;-82
2022/08/28 08:54:14;;;;;;;33.55;22.25;;;19.60;99.90;;;;;;4975515;28;20041;-84
2022/08/28 08:56:42;;;;;;;34.72;23.00;;;19.60;99.90;;;;;;4992935;28;20027;-83
2022/08/28 08:59:16;;;;;;;39.08;25.67;;;19.60;99.90;;;;;;4993901;28;20027;-82
2022/08/28 09:01:52;;;;;;;44.47;25.60;;;19.70;99.90;;;;;;4993902;28;20035;-83
2022/08/28 09:04:39;;;;;;;40.95;23.88;;;19.80;99.90;;;;;;4992803;28;20058;-84
2022/08/28 09:07:28;;;;;;;35.00;23.23;;;19.80;99.90;;;;;;4992121;28;20046;-84
2022/08/28 09:09:56;;;;;;;33.85;22.02;;;19.90;99.90;;;;;;4991214;28;20121;-83
2022/08/28 09:12:33;;;;;;;32.53;20.42;;;19.90;99.90;;;;;;4992047;28;20030;-83
2022/08/28 09:15:08;;;;;;;30.15;20.35;;;20.00;99.90;;;;;;4984231;28;20106;-83
2022/08/28 09:17:34;;;;;;;25.20;18.30;;;20.10;99.90;;;;;;4983143;28;20038;-82
2022/08/28 09:20:00;;;;;;;29.05;18.20;;;20.20;99.90;;;;;;4983019;28;20035;-84
2022/08/28 09:22:26;;;;;;;33.65;18.00;;;20.30;99.90;;;;;;4966616;28;20046;-84
2022/08/28 09:24:52;;;;;;;24.67;15.93;;;20.50;99.90;;;;;;4983936;28;20027;-82
2022/08/28 09:27:21;;;;;;;24.73;14.00;;;20.50;99.90;;;;;;4991051;28;20037;-82
2022/08/28 09:29:56;;;;;;;20.63;14.88;;;20.60;99.90;;;;;;4990255;28;20038;-84
2022/08/28 09:32:33;;;;;;;18.83;14.68;;;20.80;99.90;;;;;;4985339;28;20031;-83
2022/08/28 09:35:18;;;;;;;18.48;13.50;;;21.00;99.90;;;;;;4970139;28;20520;-83
2022/08/28 09:37:43;;;;;;;17.77;12.52;;;21.20;99.90;;;;;;4989138;28;20126;-82
2022/08/28 09:40:21;;;;;;;16.17;11.45;;;21.50;99.90;;;;;;4972022;28;20038;-83
2022/08/28 09:43:35;;;;;;;16.00;11.15;;;21.90;99.90;;;;;;4991474;28;20141;-81
2022/08/28 09:46:04;;;;;;;12.75;8.57;;;22.10;99.90;;;;;;4995086;28;20483;-81
2022/08/28 09:48:30;;;;;;;12.40;9.00;;;22.40;99.90;;;;;;4993667;28;20118;-82
2022/08/28 09:51:06;;;;;;;14.45;7.75;;;22.90;99.90;;;;;;4975674;28;20095;-82
2022/08/28 09:53:36;;;;;;;11.02;7.60;;;22.90;99.90;;;;;;4992909;28;20027;-82
2022/08/28 09:56:19;;;;;;;8.75;6.95;;;22.90;99.90;;;;;;4989295;28;20031;-85
2022/08/28 09:58:53;;;;;;;12.93;7.80;;;23.10;99.90;;;;;;4965299;28;20030;-84
2022/08/28 10:01:40;;;;;;;10.00;7.80;;;23.80;99.90;;;;;;4982025;28;20054;-84
2022/08/28 10:04:16;;;;;;;8.93;7.65;;;24.80;99.90;;;;;;4963586;28;20027;-82
2022/08/28 10:06:59;;;;;;;11.10;7.60;;;25.00;99.90;;;;;;4980146;28;20158;-84
2022/08/28 10:09:37;;;;;;;9.80;7.43;;;24.90;99.90;;;;;;4979269;28;20031;-83
2022/08/28 10:12:15;;;;;;;8.57;6.85;;;25.00;99.90;;;;;;4981727;28;20669;-84
2022/08/28 10:14:46;;;;;;;7.95;6.43;;;25.50;99.90;;;;;;4987286;28;20077;-84
2022/08/28 10:17:43;;;;;;;7.45;6.43;;;26.10;99.90;;;;;;4988235;28;20057;-84
2022/08/28 10:20:15;;;;;;;7.90;5.75;;;27.50;99.90;;;;;;4986636;28;20049;-84
2022/08/28 10:23:09;;;;;;;5.53;4.82;;;28.90;99.90;;;;;;4990846;28;20031;-83
2022/08/28 10:26:07;;;;;;;7.40;4.68;;;30.10;99.90;;;;;;4972101;28;20061;-84
2022/08/28 10:28:55;;;;;;;3.15;2.85;;;31.00;99.90;;;;;;4991487;28;20026;-83
2022/08/28 10:31:55;;;;;;;4.40;3.40;;;30.80;99.90;;;;;;4993034;28;20022;-82
2022/08/28 10:34:30;;;;;;;4.35;2.80;;;30.80;99.90;;;;;;4990746;28;20023;-83
2022/08/28 10:37:34;;;;;;;3.22;2.00;;;32.20;99.90;;;;;;4974584;28;20388;-83
2022/08/28 10:40:10;;;;;;;3.08;2.10;;;32.80;99.90;;;;;;4980105;28;20039;-86
2022/08/28 10:42:40;;;;;;;1.75;1.65;;;33.50;99.70;;;;;;4984406;28;20031;-85
2022/08/28 10:45:14;;;;;;;4.90;2.75;;;34.00;98.40;;;;;;4982506;28;20042;-84
2022/08/28 10:47:45;;;;;;;2.50;2.30;;;34.80;97.20;;;;;;4980865;28;20034;-82
2022/08/28 10:50:37;;;;;;;2.42;2.22;;;35.10;95.00;;;;;;4983220;28;20391;-84
2022/08/28 10:53:09;;;;;;;4.15;2.80;;;35.50;94.30;;;;;;4985873;28;20095;-84
2022/08/28 10:55:58;;;;;;;3.22;2.90;;;35.60;93.50;;;;;;4982010;28;20093;-83
2022/08/28 10:58:26;;;;;;;4.03;3.58;;;35.70;92.60;;;;;;4964991;28;20054;-84
2022/08/28 11:01:11;;;;;;;3.40;2.70;;;35.90;92.40;;;;;;4964526;28;20030;-84
2022/08/28 11:03:49;;;;;;;4.03;3.05;;;35.90;92.00;;;;;;4964785;28;20105;-84
2022/08/28 11:06:34;;;;;;;3.95;3.17;;;35.70;91.50;;;;;;4980132;28;20479;-85
2022/08/28 11:09:23;;;;;;;3.15;2.85;;;35.80;91.30;;;;;;4964368;28;20467;-84
2022/08/28 11:11:52;;;;;;;3.67;3.03;;;35.40;91.30;;;;;;4981045;28;20035;-84
2022/08/28 11:14:33;;;;;;;3.60;3.15;;;35.10;91.80;;;;;;4984071;28;20045;-84
2022/08/28 11:17:19;;;;;;;5.13;3.30;;;35.60;91.30;;;;;;4986180;28;20031;-85
2022/08/28 11:20:10;;;;;;;6.85;3.83;;;36.00;90.50;;;;;;4985874;28;20022;-84
2022/08/28 11:23:09;;;;;;;7.15;5.30;;;36.40;90.40;;;;;;4987237;28;20050;-85
2022/08/28 11:25:44;;;;;;;4.18;3.45;;;37.70;87.50;;;;;;4958722;28;20039;-83
2022/08/28 11:28:11;;;;;;;3.40;3.03;;;37.30;86.70;;;;;;4988885;28;20050;-82
2022/08/28 11:30:37;;;;;;;3.75;3.10;;;36.80;87.40;;;;;;4992798;28;20053;-82
2022/08/28 11:33:06;;;;;;;4.90;4.10;;;37.30;86.40;;;;;;4974510;28;20439;-85
2022/08/28 11:35:31;;;;;;;5.85;3.42;;;37.10;85.00;;;;;;4993976;28;20027;-84
2022/08/28 11:37:57;;;;;;;5.05;3.78;;;36.60;85.80;;;;;;4990868;28;20069;-83
2022/08/28 11:40:29;;;;;;;4.38;3.70;;;36.40;85.10;;;;;;4991485;28;20074;-83
2022/08/28 11:43:19;;;;;;;8.82;5.82;;;36.30;84.80;;;;;;4992411;28;20030;-83
2022/08/28 11:45:45;;;;;;;5.95;4.72;;;35.70;86.10;;;;;;4987331;28;20090;-85
2022/08/28 11:48:35;;;;;;;4.60;3.45;;;35.20;86.00;;;;;;4984834;28;20026;-84
2022/08/28 11:51:31;;;;;;;4.55;3.20;;;36.00;84.10;;;;;;4967673;28;20046;-83
2022/08/28 11:54:18;;;;;;;5.97;3.35;;;36.00;82.00;;;;;;4985353;28;20035;-84
2022/08/28 11:57:06;;;;;;;5.00;3.60;;;36.10;83.10;;;;;;4983969;28;20042;-84
2022/08/28 11:59:44;;;;;;;5.53;3.38;;;35.90;82.20;;;;;;4981866;28;20030;-82
2022/08/28 12:02:32;;;;;;;4.53;3.80;;;34.90;84.00;;;;;;4982239;28;20034;-82
2022/08/28 12:04:58;;;;;;;5.15;3.85;;;34.90;84.50;;;;;;4981658;28;20170;-84
2022/08/28 12:07:35;;;;;;;6.57;4.50;;;34.80;84.10;;;;;;4981874;28;20067;-85
2022/08/28 12:10:01;;;;;;;5.30;4.07;;;34.50;85.00;;;;;;4985133;28;20042;-84
2022/08/28 12:12:45;;;;;;;5.25;4.00;;;34.10;85.20;;;;;;4968734;28;20546;-85
2022/08/28 12:15:34;;;;;;;5.93;4.30;;;33.80;86.50;;;;;;4978980;28;20071;-85
2022/08/28 12:18:09;;;;;;;14.32;4.15;;;33.50;86.40;;;;;;4973374;28;20286;-82
2022/08/28 12:20:50;;;;;;;5.38;4.13;;;32.80;87.70;;;;;;4963584;28;20039;-84
2022/08/28 12:23:22;;;;;;;5.20;3.90;;;32.90;88.60;;;;;;4962978;28;20034;-85
2022/08/28 12:26:04;;;;;;;5.50;3.80;;;33.10;87.10;;;;;;4980949;28;20030;-83
2022/08/28 12:28:43;;;;;;;4.13;3.72;;;33.10;87.00;;;;;;4982868;28;20027;-83
2022/08/28 12:32:10;;;;;;;4.72;4.03;;;32.80;86.50;;;;;;4983042;28;20095;-86
2022/08/28 12:34:26;;;;;;;5.43;3.72;;;32.60;87.80;;;;;;4981313;28;20418;-84
2022/08/28 12:36:59;;;;;;;5.53;3.80;;;34.20;85.50;;;;;;4985876;28;20061;-85
2022/08/28 12:39:27;;;;;;;5.13;3.88;;;35.90;82.00;;;;;;4966103;28;20038;-84
2022/08/28 12:41:53;;;;;;;3.15;2.85;;;36.50;81.70;;;;;;4980716;28;20038;-86
2022/08/28 12:44:29;;;;;;;3.90;3.55;;;36.90;78.20;;;;;;4988576;28;20125;-86
2022/08/28 12:46:55;;;;;;;3.33;3.03;;;36.30;80.00;;;;;;4967459;28;20238;-85
2022/08/28 12:49:30;;;;;;;4.45;3.17;;;36.20;80.10;;;;;;4987523;28;20440;-83
2022/08/28 12:52:10;;;;;;;3.90;3.28;;;36.00;80.20;;;;;;4996174;28;20031;-84
2022/08/28 12:54:37;;;;;;;4.95;3.80;;;35.80;81.10;;;;;;4970216;28;20039;-85
2022/08/28 12:57:09;;;;;;;6.40;4.07;;;35.30;81.80;;;;;;4985469;28;20023;-85
2022/08/28 12:59:38;;;;;;;3.70;3.30;;;35.20;82.10;;;;;;4990979;28;20015;-82
2022/08/28 13:02:24;;;;;;;4.38;3.30;;;35.30;81.50;;;;;;4996372;28;20055;-84
2022/08/28 13:04:58;;;;;;;4.95;3.50;;;35.70;79.90;;;;;;4989543;28;20065;-84
2022/08/28 13:07:33;;;;;;;6.75;3.70;;;36.20;80.00;;;;;;4990134;28;20054;-83
2022/08/28 13:10:05;;;;;;;6.45;4.00;;;36.50;79.10;;;;;;4992026;28;20027;-81
2022/08/28 13:12:38;;;;;;;4.50;3.58;;;36.90;79.20;;;;;;5052537;22;20034;-85
2022/08/28 13:15:06;;;;;;;6.90;3.50;;;37.10;79.00;;;;;;5031529;28;20049;-86
2022/08/28 13:17:49;;;;;;;6.95;3.80;;;37.60;78.30;;;;;;5010562;28;20065;-87
2022/08/28 13:20:29;;;;;;;9.10;4.68;;;37.80;77.80;;;;;;5017696;28;20026;-85
2022/08/28 13:22:55;;;;;;;6.38;3.75;;;38.20;77.40;;;;;;5002355;28;20038;-85
2022/08/28 13:25:27;;;;;;;7.47;4.78;;;39.10;76.00;;;;;;5002009;28;20015;-85
2022/08/28 13:28:03;;;;;;;4.05;3.65;;;40.30;74.10;;;;;;5017473;28;20030;-85
2022/08/28 13:30:32;;;;;;;7.95;5.70;;;40.80;72.60;;;;;;4991380;28;20034;-86
2022/08/28 13:33:23;;;;;;;8.45;5.57;;;40.70;71.50;;;;;;5010215;28;20042;-85
2022/08/28 13:35:51;;;;;;;4.95;3.70;;;41.20;70.50;;;;;;5007544;28;20124;-85
2022/08/28 13:38:19;;;;;;;5.10;3.67;;;41.40;69.30;;;;;;4990154;28;20030;-87
2022/08/28 13:40:48;;;;;;;6.25;3.70;;;39.50;70.10;;;;;;4989692;28;20045;-86
2022/08/28 13:43:15;;;;;;;4.53;3.83;;;38.30;71.80;;;;;;4990221;28;20546;-87
2022/08/28 13:45:43;;;;;;;9.55;5.10;;;37.50;73.10;;;;;;5007259;28;20026;-87
2022/08/28 13:48:15;;;;;;;4.97;3.50;;;37.50;74.00;;;;;;4990707;28;20026;-87
2022/08/28 13:50:44;;;;;;;5.45;3.38;;;37.80;72.80;;;;;;4989986;28;20045;-86
2022/08/28 13:53:12;;;;;;;5.30;3.53;;;37.50;72.20;;;;;;5007256;28;20054;-86
2022/08/28 13:55:37;;;;;;;6.20;4.38;;;36.80;73.50;;;;;;4989496;28;20040;-87
2022/08/28 13:58:03;;;;;;;8.98;5.72;;;35.70;75.40;;;;;;4991466;28;20090;-85
2022/08/28 14:00:38;;;;;;;6.70;5.07;;;34.30;78.00;;;;;;5015734;28;20049;-85
2022/08/28 14:05:48;;;;;;;6.60;4.88;;;31.90;83.00;;;;;;4991459;28;20133;-87
2022/08/28 14:08:14;;;;;;;5.80;4.82;;;31.00;86.00;;;;;;5008460;28;20034;-87
2022/08/28 14:10:40;;;;;;;9.23;5.90;;;30.30;88.40;;;;;;5013325;28;20034;-86
2022/08/28 14:13:06;;;;;;;8.70;6.10;;;29.80;90.60;;;;;;5012062;28;20199;-86
2022/08/28 14:15:32;;;;;;;7.63;5.53;;;29.30;91.60;;;;;;5007005;28;20038;-86
2022/08/28 14:17:58;;;;;;;8.52;5.57;;;29.10;92.20;;;;;;5017778;28;20026;-86
2022/08/28 14:20:24;;;;;;;7.22;5.97;;;28.80;93.50;;;;;;4988861;28;20034;-85
2022/08/28 14:22:50;;;;;;;7.22;5.70;;;28.70;93.80;;;;;;5016306;28;20082;-84
2022/08/28 14:25:15;;;;;;;7.57;5.35;;;28.70;93.00;;;;;;5005831;28;20038;-85